Ride Results

Border Challenge (20-03-2005)
Ride distance: 80.0 km

Outcomes - Border Challenge (20-03-2005)
Division No. of Entries Retired / DNE Completed Withdrawn Ineligible V/O Percentage Completed
HW 26 - 23 - - 3 88.46%
MW 46 - 34 - - 12 73.91%
LW 23 - 19 - - 4 82.61%
JN 8 - 8 - - - 100.00%
Totals 103 - 84 - - 19 81.55%
Results - Border Challenge (20-03-2005)
No. Rider Horse Place Time Leg Speeds Total
Km/Hr
H/R bpm
Heavyweight
37 Damian Todd Woodbourne Kimba 1 3:44:00 21.0, 21.8 21.43 35, 43, 56 (Avg:49)
229 David Horton Diamond Explorer 2 4:51:00 17.3, 15.6 16.49 36, 42, 47 (Avg:44)
47 Ven Grasso Merimindi Nike 3 5:03:00 17.6, 14.3 15.84 33, 47, 50 (Avg:48)
22 Davin Coughran Sha'Almalih 4 5:15:00 15.5, 14.9 15.24 37, 41, 42 (Avg:41)
127 Frank Mollema Divine Jester 5 5:22:00 14.5, 15.2 14.91 30, 40, 40 (Avg:40)
129 Alwyn Torenbeek Queensland Mudmaps 6 5:25:00 16.1, 13.6 14.77 38, 44, 52 (Avg:48)
2 Eric Tuennecke Mulla Boy 7 5:39:00 15.7, 12.8 14.16 36, 48, 47 (Avg:47)
209 Bruce Moore Arabcrest Regal Spirit 8 6:00:00 13.2, 13.4 13.33 40, 44, 52 (Avg:48)
121 Dean Stephen Abbe Stephanie 8 6:00:00 13.2, 13.4 13.33 33, 44, 42 (Avg:43)
38 Kristan Kershaw Gwaihir Lalique 10 6:09:00 13.0, 12.9 13.01 34, 41, 47 (Avg:44)
135 Adrian Hope-Hodgetts Cobber 11 6:11:00 13.1, 12.7 12.94 35, 44, 49 (Avg:46)
212 Matthew Sample Brookleigh Ricardo 11 6:11:00 13.1, 12.7 12.94 39, 40, 43 (Avg:41)
14 Dick Collyer Crystabarbara 13 6:15:00 12.3, 13.3 12.80 38, 42, 49 (Avg:45)
8 John Bright Murland Park Mannequin 14 6:32:00 12.9, 11.5 12.24 36, 48, 47 (Avg:47)
30 Bridget Nottle Shardell Shantarnah Golden 15 6:34:00 12.4, 11.9 12.18 44, 54, 47 (Avg:50)
5 John Davidson Celebration 16 6:43:00 11.7, 12.0 11.91 40, 45, 46 (Avg:45)
98 Marylou Locke Ally 17 6:50:00 13.2, 10.4 11.71 40, 44, 48 (Avg:46)
42 David Grove Aloha Princess Di 18 6:57:00 11.6, 11.3 11.51 35, 40, 40 (Avg:40)
27 Rex Cox Ausden Kon Tiki 19 7:30:00 11.2, 10.1 10.67 39, 54, 60 (Avg:57)
28 Mark Wormell Ausden Sahara Bey 19 7:30:00 11.5, 9.8 10.67 34, 46, 53 (Avg:49)
125 Allan Caslick Wollumbin Sambuca 21 7:31:00 10.8, 10.4 10.64 32, 38, 42 (Avg:40)
92 Kieron Power Alfie Langer 22 8:00:00 12.1, 8.5 10.00 35, 38, 48 (Avg:43)
217 Stephen Harris Kasban Pierre 23 8:07:00 11.3, 8.6 9.86 40, 42, 53 (Avg:47)
211 Robyn Coombes Nyora Clipper Heart Rate L2 0:00:00 12.5, 10.6 - 32, 36, 68 (Avg:52)
123 Terry McMurrrich Nioka Park Nikita Lame L1 0:00:00 10.8 - 42, 50 (Avg:50)
41 Simon Standing Royal Bella Lame P/R 0:00:00 - - 40
Middleweight
36 Judith Burton Woodbourne Ruby 1 3:44:00 21.0, 21.8 21.43 41, 40, 49 (Avg:44)
83 Tanya Trevarthen Rodborough Rezon 2 3:44:01 20.5, 22.4 21.43 34, 42, 48 (Avg:45)
81 Judy Battams Marja Shyella Desert Dream 3 4:22:00 19.1, 17.5 18.32 37, 39, 41 (Avg:40)
126 Rhiannon Groth Ceda 4 4:24:00 16.9, 19.6 18.18 36, 42, 39 (Avg:40)
210 Jacky Clarke Kalkadoon Sequin 5 4:59:00 16.5, 15.5 16.05 32, 44, 59 (Avg:51)
13 Narelle Childs Follyfoot 6 5:03:00 17.3, 14.5 15.84 38, 39, 56 (Avg:47)
20 Tony Standfield Stanpark RH 7 5:15:00 15.5, 14.9 15.24 35, 39, 41 (Avg:40)
79 Peter Kelly Razorback Phoenix 8 5:42:00 12.5, 15.8 14.04 36, 40, 40 (Avg:40)
85 Simon Blakely Steel The Thunder 9 5:44:00 15.8, 12.4 13.95 38, 46, 58 (Avg:52)
84 Yvonne Mears Kalkadoon Vagabond 10 6:04:00 13.1, 13.1 13.19 33, 48, 48 (Avg:48)
82 Jeff Trevarthen Red Zane 10 6:04:00 13.1, 13.1 13.19 35, 40, 49 (Avg:44)
31 Maureen Feltham Malali 12 6:10:00 12.9, 12.9 12.97 34, 40, 50 (Avg:45)
214 Brook Sample Meltharina Mars 13 6:11:00 13.1, 12.7 12.94 36, 34, 44 (Avg:39)
215 Michael Taylor A Touch Of Frost 13 6:11:00 13.1, 12.7 12.94 38, 52, 44 (Avg:48)
19 Trent Brickley Sukis Keeper 15 6:13:00 12.8, 12.9 12.87 34, 39, 44 (Avg:41)
89 Debbie Thompson Caramea Dancing Heart 16 6:17:00 13.1, 12.3 12.73 34, 44, 49 (Avg:46)
10 Rosemary Stocks Cheeta 17 6:28:00 12.1, 12.5 12.37 37, 42, 60 (Avg:51)
124 Wendy Ingle Koppa 18 6:35:00 12.9, 11.4 12.15 40, 45, 52 (Avg:48)
21 Michael Combe Aloha Grace 19 6:36:00 12.9, 11.3 12.12 38, 48, 46 (Avg:47)
77 Bruce Everson Manana Zhado 19 6:36:00 11.7, 12.5 12.12 34, 40, 50 (Avg:45)
48 Meagan Makejev Desert Sand 19 6:36:00 12.9, 11.3 12.12 38, 48, 52 (Avg:50)
6 Jane Davidson Nangana Madoukhar 22 6:43:00 12.9, 11.0 11.91 37, 44, 48 (Avg:46)
131 Albie Knight Moondarra Matia 22 6:43:00 11.7, 12.0 11.91 33, 41, 38 (Avg:39)
100 Bob Locke Aratahnes Prelude 24 6:50:00 13.2, 10.4 11.71 29, 44, 44 (Avg:44)
133 Ben Caslick Gandalf 25 7:14:00 11.4, 10.6 11.06 35, 46, 52 (Avg:49)
134 Claire Symonds Steel Ya Heart 25 7:14:00 11.4, 10.6 11.06 42, 48, 53 (Avg:50)
220 Ruth Van der Wegen Hazeldean Shakla Rose 27 7:27:00 11.2, 10.2 10.74 36, 44, 48 (Avg:46)
78 Mitchell Jones Riverdance Kahlua 28 7:30:00 10.5, 10.7 10.67 42, 42, 52 (Avg:47)
221 Louis Botha Jigsaw 29 7:40:00 11.2, 9.7 10.43 35, 40, 49 (Avg:44)
222 Jaimee Foulsham Waterford Stud's Spotlight 29 7:40:00 11.2, 9.7 10.43 30, 38, 42 (Avg:40)
227 Sandra Gully Rusty Libra 31 7:45:00 11.1, 9.5 10.32 36, 46, 48 (Avg:47)
225 Jodie Salinas Bartimaeus 32 7:46:00 11.1, 9.5 10.30 31, 36, 38 (Avg:37)
213 Helena South Nazelle 32 7:46:00 11.1, 9.5 10.30 37, 40, 43 (Avg:41)
93 Sonya Ruprecht Jiah Bandit 34 8:00:00 10.0, 9.9 10.00 41, 47, 60 (Avg:53)
80 Angela Georgopoulos El Rebel Stimulator Lame L2 0:00:00 12.9, 11.6 - 38, 44, 50 (Avg:47)
17 Raymond Griffiths Hazeldean Amira Estara Lame L2 0:00:00 14.2, 14.8 - 37, 48, 62 (Avg:55)
46 Damien Keys Jerry Jeremiah Lame L2 0:00:00 12.4, 19.0 - 35, 36, 51 (Avg:43)
11 Renee Kirk Cherox Assassin Heart Rate L2 0:00:00 12.1, 12.5 - 37, 55, 64 (Avg:59)
88 Simone Krahnen Tallaroon Kiwi Magic Lame L2 0:00:00 11.5, 11.2 - 40, 50, 46 (Avg:48)
132 Heidi Mellers Pendel Park Zaire Lame L2 0:00:00 16.1, 13.6 - 34, 38, 50 (Avg:44)
43 Linda Meredith Inshallah Emblem Lame L2 0:00:00 13.1, 13.4 - 34, 39, 46 (Avg:42)
226 Elsie Newsome Castlebar Truman Lame L2 0:00:00 11.1, 21.8 - 36, 45, 53 (Avg:49)
218 Mellissa Stubbs Dunwingeri Saahma Lame L2 0:00:00 11.3, 8.6 - 36, 44, 50 (Avg:47)
15 Jillian Crowley Crystalara Gall or injury L1 0:00:00 12.3 - 33, 43 (Avg:43)
96 Cindy Wagner Summerwood Naivasha Lame L1 0:00:00 10.0 - 37, 43 (Avg:43)
4 Peter Kelly Wollumbin Faiz Lame P/R 0:00:00 - - 34
Lightweight
29 Chloe Lyons Stanpark Strike 1 5:15:00 15.5, 14.9 15.24 40, 42, 47 (Avg:44)
32 Margaret Harvey Banbra Shadow 2 5:53:00 13.0, 14.2 13.60 32, 38, 46 (Avg:42)
44 Elise Gough Aloha Millennium 3 6:07:00 13.0, 13.1 13.08 35, 47, 49 (Avg:48)
216 Kaylea Maher El Quantum 4 6:11:00 13.1, 12.7 12.94 35, 40, 40 (Avg:40)
223 Ashlee Shafer Chiquita 4 6:11:00 13.1, 12.7 12.94 36, 54, 43 (Avg:48)
9 Abby McMurrich Nunyar Shatir 6 6:13:00 12.8, 12.9 12.87 38, 46, 59 (Avg:52)
23 Katy Brown Stanpark Mystery 7 6:16:00 12.7, 12.7 12.77 37, 38, 48 (Avg:43)
1 Jennifer Annetts Churinga Witezan's Dream 8 6:18:00 12.8, 12.5 12.70 35, 54, 50 (Avg:52)
91 Anne Criner Millers Park Absolute 8 6:18:00 13.1, 12.3 12.70 37, 44, 48 (Avg:46)
12 Emma McMurrich Nihal City Extra 8 6:18:00 12.8, 12.5 12.70 32, 48, 48 (Avg:48)
40 Barbara Draheim Danbar Silk N' Satinn 11 6:23:00 13.0, 12.0 12.53 33, 40, 52 (Avg:46)
18 Sue Daniell Gurangada Khavalier 12 6:35:00 13.1, 11.2 12.15 46, 55, 60 (Avg:57)
228 Kelly Christianson Montville Abigail 13 6:56:00 12.5, 10.6 11.54 39, 42, 46 (Avg:44)
33 Belle Bollard Gandari Alaaddins Jaybee 14 7:27:00 11.2, 10.2 10.74 40, 40, 43 (Avg:41)
25 Melanie Anderson Markus Zen Galaxy 15 7:30:00 11.5, 9.8 10.67 38, 48, 50 (Avg:49)
76 Libby Jones Gandari AA Mimmie Louise 15 7:30:00 10.5, 10.7 10.67 36, 40, 48 (Avg:44)
122 Shan Symons Crystal Shaklan 17 7:32:00 10.8, 10.3 10.62 37, 44, 48 (Avg:46)
224 Jeremy Robertson Roheryn Bold Impression 18 7:40:00 11.2, 9.7 10.43 33, 40, 44 (Avg:42)
49 Bec Miller Ropa Park Kue-Sera 19 7:46:00 11.1, 9.5 10.30 32, 42, 44 (Avg:43)
90 Clare Fleming Mangueira Moksha Lame L2 0:00:00 13.1, 13.4 - 32, 40, 46 (Avg:43)
34 Julia Morgillo Woodbourne Medico Lame L2 0:00:00 11.3, 12.5 - 32, 44, 46 (Avg:45)
45 Cassie Saunders Noran Mersaydees Lame L2 0:00:00 13.0, 13.1 - 32, 40, 44 (Avg:42)
39 Annette Chamberlain Sir Ninian Lame L1 0:00:00 19.1 - 31, 42 (Avg:42)
Junior
130 Jamie Mollema Billywillinga Rocky 1 4:24:00 16.9, 19.6 18.18 36, 37, 44 (Avg:40)
26 Rhys Rayner Mulawa Malibu 2 6:24:00 12.4, 12.5 12.50 36, 40, 40 (Avg:40)
35 Laura Finlayson Splendacrest Larabee 3 6:34:00 12.4, 11.9 12.18 41, 47, 50 (Avg:48)
51 Racheal Townsend Myahna Melodoura 4 6:36:00 11.7, 12.5 12.12 31, 40, 42 (Avg:41)
7 Ian Davidson Omar 5 6:43:00 11.7, 12.0 11.91 36, 48, 54 (Avg:51)
87 Erin Krahnen Pender Brook Kedor 6 7:02:00 11.5, 11.2 11.37 38, 54, 59 (Avg:56)
86 Colleen Krahnen Wywurri Starlight 7 7:04:00 11.5, 11.1 11.32 39, 42, 52 (Avg:47)
97 Jasmine Shields Mithras Eric 8 7:46:00 11.1, 9.5 10.30 30, 40, 42 (Avg:41)